Time;durP1;ratioP1;P1;durP2;ratioP2;P2;SDS_P1;SDS_P2;PMS_P1;PMS_P2;Temp;Humidity;BMP_temperature;BMP_pressure;BME280_temperature;BME280_humidity;BME280_pressure;Samples;Min_cycle;Max_cycle;Signal;HPM_P1;HPM_P2
2023/03/18 00:00:52;;;;;;;16.35;10.35;;;;;;;9.33;100.00;100661.78;4912496;28;20767;-74
2023/03/18 00:03:17;;;;;;;14.38;10.02;;;;;;;9.32;100.00;100659.25;4915833;29;20599;-75
2023/03/18 00:05:43;;;;;;;17.25;10.80;;;;;;;9.29;100.00;100652.31;4916518;29;20182;-74
2023/03/18 00:08:10;;;;;;;15.05;10.05;;;;;;;9.24;100.00;100664.84;4915879;28;20814;-75
2023/03/18 00:10:35;;;;;;;15.90;10.23;;;;;;;9.21;100.00;100667.63;4912167;28;20047;-75
2023/03/18 00:13:03;;;;;;;16.65;10.30;;;;;;;9.18;100.00;100673.03;4902971;29;20146;-75
2023/03/18 00:15:29;;;;;;;17.95;10.90;;;;;;;9.17;100.00;100671.31;4928668;28;20039;-75
2023/03/18 00:17:54;;;;;;;18.23;10.50;;;;;;;9.14;100.00;100682.84;4916090;29;20050;-76
2023/03/18 00:20:27;;;;;;;18.63;10.70;;;;;;;9.13;100.00;100681.16;4916042;29;20067;-75
2023/03/18 00:22:54;;;;;;;15.40;9.90;;;;;;;9.10;100.00;100687.41;4915394;29;20051;-74
2023/03/18 00:25:20;;;;;;;17.13;10.60;;;;;;;9.08;100.00;100685.75;4897792;28;20067;-75
2023/03/18 00:27:45;;;;;;;17.85;10.48;;;;;;;9.05;100.00;100689.38;4902764;29;20684;-75
2023/03/18 00:30:12;;;;;;;17.17;10.32;;;;;;;9.04;100.00;100682.38;4915349;28;20559;-75
2023/03/18 00:32:37;;;;;;;18.27;10.93;;;;;;;9.01;100.00;100689.56;4913247;29;20667;-75
2023/03/18 00:35:03;;;;;;;17.50;10.80;;;;;;;8.97;100.00;100680.91;4915271;29;20049;-75
2023/03/18 00:37:32;;;;;;;20.08;11.15;;;;;;;8.94;100.00;100691.63;4912469;29;20507;-74
2023/03/18 00:40:03;;;;;;;16.92;10.63;;;;;;;8.89;100.00;100688.31;4896049;29;20044;-74
2023/03/18 00:42:36;;;;;;;19.88;10.88;;;;;;;8.85;100.00;100697.25;4912535;28;20043;-75
2023/03/18 00:45:03;;;;;;;16.02;11.25;;;;;;;8.79;100.00;100696.59;4898758;29;20131;-74
2023/03/18 00:47:29;;;;;;;16.88;10.80;;;;;;;8.80;100.00;100700.97;4928725;28;20050;-74
2023/03/18 00:49:55;;;;;;;19.55;11.70;;;;;;;8.79;100.00;100701.00;4898248;29;20048;-75
2023/03/18 00:52:21;;;;;;;20.00;11.93;;;;;;;8.78;100.00;100709.84;4914951;29;20119;-74
2023/03/18 00:54:48;;;;;;;23.23;13.98;;;;;;;8.76;100.00;100704.63;4915223;29;20257;-74
2023/03/18 00:57:14;;;;;;;23.92;13.90;;;;;;;8.76;100.00;100702.00;4915366;29;20040;-74
2023/03/18 00:59:40;;;;;;;22.30;13.57;;;;;;;8.76;100.00;100711.72;4910104;29;20056;-75
2023/03/18 01:02:05;;;;;;;22.58;13.45;;;;;;;8.73;100.00;100717.09;4915459;29;20044;-74
2023/03/18 01:04:31;;;;;;;25.65;15.25;;;;;;;8.68;100.00;100712.00;4912836;29;20067;-76
2023/03/18 01:06:57;;;;;;;22.67;14.63;;;;;;;8.67;100.00;100710.28;4915630;29;20073;-76
2023/03/18 01:09:22;;;;;;;24.63;14.50;;;;;;;8.62;100.00;100714.88;4915030;29;20050;-75
2023/03/18 01:11:48;;;;;;;25.10;15.18;;;;;;;8.58;100.00;100706.22;4901081;29;20046;-75
2023/03/18 01:14:14;;;;;;;23.70;15.00;;;;;;;8.51;100.00;100705.59;4901595;29;20051;-73
2023/03/18 01:16:39;;;;;;;25.73;15.85;;;;;;;8.46;100.00;100698.75;4915329;29;20047;-74
2023/03/18 01:19:05;;;;;;;24.90;14.77;;;;;;;8.39;100.00;100706.91;4897185;29;20062;-74
2023/03/18 01:21:31;;;;;;;25.20;14.85;;;;;;;8.33;100.00;100716.84;4896275;29;20066;-74
2023/03/18 01:23:59;;;;;;;25.05;14.90;;;;;;;8.25;100.00;100718.00;4914811;29;20055;-74
2023/03/18 01:26:25;;;;;;;25.77;15.20;;;;;;;8.18;100.00;100713.00;4915144;29;21725;-75
2023/03/18 01:28:51;;;;;;;23.92;14.70;;;;;;;8.09;100.00;100708.94;4913866;29;20067;-74
2023/03/18 01:31:17;;;;;;;24.30;14.68;;;;;;;8.01;100.00;100704.78;4894969;29;20051;-75
2023/03/18 01:33:44;;;;;;;22.25;15.07;;;;;;;7.94;100.00;100703.31;4914554;29;20044;-75
2023/03/18 01:36:10;;;;;;;25.80;15.15;;;;;;;7.88;100.00;100707.03;4928170;28;20058;-75
2023/03/18 01:38:36;;;;;;;26.63;16.38;;;;;;;7.83;100.00;100702.81;4912772;29;20048;-75
2023/03/18 01:41:02;;;;;;;26.30;16.02;;;;;;;7.77;100.00;100698.66;4917031;29;20043;-75
2023/03/18 01:43:33;;;;;;;24.27;16.02;;;;;;;7.73;100.00;100702.28;4915741;29;20051;-75
2023/03/18 01:46:00;;;;;;;28.30;16.48;;;;;;;7.67;100.00;100700.75;4917808;29;20067;-74
2023/03/18 01:48:29;;;;;;;27.70;16.00;;;;;;;7.63;100.00;100693.00;4914378;29;20095;-74
2023/03/18 01:50:58;;;;;;;26.60;16.65;;;;;;;7.60;100.00;100702.75;4930675;28;20185;-74
2023/03/18 01:53:27;;;;;;;27.58;17.08;;;;;;;7.57;100.00;100702.00;4918096;29;20518;-74
2023/03/18 01:55:56;;;;;;;30.65;17.33;;;;;;;7.55;100.00;100699.41;4931352;28;20058;-75
2023/03/18 01:58:26;;;;;;;34.97;18.50;;;;;;;7.51;100.00;100689.03;4914344;28;20047;-75
2023/03/18 02:00:58;;;;;;;26.77;17.05;;;;;;;7.46;100.00;100691.81;4901077;29;20099;-74
2023/03/18 02:03:26;;;;;;;28.48;18.00;;;;;;;7.42;100.00;100690.22;4915869;29;20659;-74
2023/03/18 02:05:52;;;;;;;29.42;18.02;;;;;;;7.37;100.00;100700.03;4913580;28;20133;-74
2023/03/18 02:08:18;;;;;;;30.27;17.90;;;;;;;7.34;100.00;100696.63;4915462;29;20102;-73
2023/03/18 02:10:44;;;;;;;32.35;18.75;;;;;;;7.31;100.00;100696.69;4897539;29;20055;-74
2023/03/18 02:13:11;;;;;;;31.17;18.35;;;;;;;7.28;100.00;100699.47;4897794;29;20047;-74
2023/03/18 02:15:43;;;;;;;37.10;20.10;;;;;;;7.27;100.00;100694.22;4899835;29;20066;-74
2023/03/18 02:18:10;;;;;;;35.38;21.10;;;;;;;7.26;100.00;100689.88;4931297;28;20134;-75
2023/03/18 02:20:55;;;;;;;35.70;20.20;;;;;;;7.25;100.00;100696.06;4912797;29;21578;-74
2023/03/18 02:23:29;;;;;;;35.65;21.75;;;;;;;7.22;100.00;100691.75;4901091;29;20454;-74
2023/03/18 02:26:24;;;;;;;37.15;20.00;;;;;;;7.17;100.00;100694.56;4931337;28;20053;-75
2023/03/18 02:28:51;;;;;;;38.08;20.92;;;;;;;7.13;100.00;100698.19;4900322;29;20040;-74
2023/03/18 02:31:17;;;;;;;36.83;19.65;;;;;;;7.08;100.00;100697.47;4898242;29;20051;-74
2023/03/18 02:33:43;;;;;;;32.42;19.85;;;;;;;7.06;100.00;100702.81;4913367;29;20532;-74
2023/03/18 02:36:12;;;;;;;41.97;22.23;;;;;;;7.04;100.00;100696.72;4903394;29;20592;-74
2023/03/18 02:38:42;;;;;;;35.17;20.35;;;;;;;7.03;100.00;100696.78;4926654;28;20039;-74
2023/03/18 02:41:17;;;;;;;33.47;20.13;;;;;;;7.00;100.00;100696.88;4913889;29;20054;-74
2023/03/18 02:43:43;;;;;;;35.58;20.23;;;;;;;6.97;100.00;100699.63;4916761;29;20059;-74
2023/03/18 02:46:18;;;;;;;35.75;20.55;;;;;;;6.93;100.00;100701.50;4917313;29;20412;-74
2023/03/18 02:48:45;;;;;;;37.13;20.00;;;;;;;6.88;100.00;100714.81;4915294;29;20051;-74
2023/03/18 02:51:12;;;;;;;38.33;20.13;;;;;;;6.82;100.00;100716.75;4916941;29;20301;-74
2023/03/18 02:53:38;;;;;;;33.50;19.27;;;;;;;6.76;100.00;100716.03;4898938;29;22359;-74
2023/03/18 02:56:04;;;;;;;37.97;20.42;;;;;;;6.71;100.00;100722.34;4898130;29;20056;-74
2023/03/18 02:58:30;;;;;;;37.60;21.05;;;;;;;6.68;100.00;100723.31;4913884;29;20052;-74
2023/03/18 03:00:56;;;;;;;37.88;20.63;;;;;;;6.65;100.00;100726.91;4917061;29;20086;-75
2023/03/18 03:03:23;;;;;;;39.28;21.02;;;;;;;6.64;100.00;100734.81;4914512;29;20119;-74
2023/03/18 03:05:48;;;;;;;39.58;20.50;;;;;;;6.61;100.00;100738.44;4928418;28;20511;-74
2023/03/18 03:08:14;;;;;;;38.85;21.65;;;;;;;6.58;100.00;100738.50;4914128;29;20094;-75
2023/03/18 03:10:40;;;;;;;33.40;19.90;;;;;;;6.56;100.00;100734.22;4916977;29;20203;-74
2023/03/18 03:13:08;;;;;;;41.70;20.50;;;;;;;6.54;100.00;100736.03;4911506;29;20530;-75
2023/03/18 03:15:37;;;;;;;39.13;20.60;;;;;;;6.51;100.00;100739.63;4928615;28;20522;-75
2023/03/18 03:18:03;;;;;;;36.80;20.40;;;;;;;6.48;100.00;100734.47;4916696;29;20046;-74
2023/03/18 03:20:32;;;;;;;36.90;20.13;;;;;;;6.47;100.00;100737.97;4915903;29;20399;-75
2023/03/18 03:22:58;;;;;;;41.97;20.23;;;;;;;6.46;100.00;100744.13;4910932;29;20054;-75
2023/03/18 03:25:26;;;;;;;39.35;20.88;;;;;;;6.43;100.00;100739.00;4899922;29;20059;-75
2023/03/18 03:27:52;;;;;;;34.50;20.77;;;;;;;6.41;100.00;100740.78;4898139;29;20052;-75
2023/03/18 03:30:18;;;;;;;38.30;20.42;;;;;;;6.39;100.00;100754.84;4909858;29;21086;-75
2023/03/18 03:32:44;;;;;;;34.42;19.80;;;;;;;6.36;100.00;100752.31;4914128;29;20052;-75
2023/03/18 03:35:13;;;;;;;33.50;19.30;;;;;;;6.36;100.00;100764.59;4897628;29;20444;-75
2023/03/18 03:37:39;;;;;;;36.55;19.38;;;;;;;6.33;100.00;100767.31;4912248;29;20070;-75
2023/03/18 03:40:05;;;;;;;31.90;18.77;;;;;;;6.34;100.00;100769.91;4911607;29;20487;-75
2023/03/18 03:42:31;;;;;;;37.92;19.40;;;;;;;6.34;100.00;100766.41;4913992;29;20574;-75
2023/03/18 03:44:56;;;;;;;37.97;19.58;;;;;;;6.32;100.00;100761.19;4916488;29;20051;-74
2023/03/18 03:47:22;;;;;;;34.97;18.75;;;;;;;6.30;100.00;100765.63;4914056;29;20058;-75
2023/03/18 03:49:49;;;;;;;33.40;19.30;;;;;;;6.26;100.00;100769.25;4916041;29;20113;-75
2023/03/18 03:52:17;;;;;;;37.17;19.15;;;;;;;6.24;100.00;100782.47;4916231;29;20138;-74
2023/03/18 03:54:42;;;;;;;31.75;17.55;;;;;;;6.22;100.00;100778.16;4915284;29;20571;-75
2023/03/18 03:57:08;;;;;;;32.22;17.50;;;;;;;6.21;100.00;100777.28;4913698;29;20054;-75
2023/03/18 03:59:33;;;;;;;36.63;18.25;;;;;;;6.19;100.00;100778.22;4913442;29;20054;-75
2023/03/18 04:01:59;;;;;;;33.92;17.90;;;;;;;6.18;100.00;100771.25;4915214;29;20284;-75
2023/03/18 04:04:25;;;;;;;34.55;17.70;;;;;;;6.17;100.00;100774.78;4914111;29;20067;-75
2023/03/18 04:06:51;;;;;;;33.30;16.65;;;;;;;6.22;100.00;100783.41;4912834;29;20174;-74
2023/03/18 04:09:16;;;;;;;39.13;19.17;;;;;;;6.27;100.00;100784.16;4915222;29;20203;-75
2023/03/18 04:11:43;;;;;;;38.92;18.92;;;;;;;6.30;100.00;100791.06;4912212;29;20852;-75
2023/03/18 04:14:09;;;;;;;39.40;18.55;;;;;;;6.35;100.00;100795.31;4911425;29;20093;-75
2023/03/18 04:16:34;;;;;;;41.45;18.80;;;;;;;6.42;100.00;100790.72;4897354;29;20551;-74
2023/03/18 04:19:00;;;;;;;37.22;18.00;;;;;;;6.47;100.00;100787.94;4915405;29;20099;-75
2023/03/18 04:21:26;;;;;;;44.95;18.02;;;;;;;6.54;100.00;100789.47;4922890;28;20098;-75
2023/03/18 04:23:52;;;;;;;45.67;18.40;;;;;;;6.59;100.00;100786.75;4915385;29;20052;-75
2023/03/18 04:26:17;;;;;;;44.83;17.30;;;;;;;6.63;100.00;100789.22;4915307;29;20043;-75
2023/03/18 04:28:43;;;;;;;42.70;16.95;;;;;;;6.67;100.00;100787.38;4913686;29;20555;-75
2023/03/18 04:31:08;;;;;;;49.25;15.80;;;;;;;6.69;100.00;100796.06;4914529;29;20051;-75
2023/03/18 04:33:34;;;;;;;43.45;14.10;;;;;;;6.69;100.00;100787.34;4897572;29;20633;-75
2023/03/18 04:36:00;;;;;;;43.45;14.35;;;;;;;6.72;100.00;100792.50;4913233;29;20039;-75
2023/03/18 04:38:27;;;;;;;41.72;13.70;;;;;;;6.71;100.00;100793.41;4912280;29;20086;-75
2023/03/18 04:40:52;;;;;;;48.25;14.55;;;;;;;6.73;100.00;100799.47;4913086;29;20039;-75
2023/03/18 04:43:18;;;;;;;45.97;14.50;;;;;;;6.73;100.00;100800.34;4910837;29;20498;-75
2023/03/18 04:45:43;;;;;;;42.00;14.70;;;;;;;6.77;100.00;100806.38;4895780;29;20082;-75
2023/03/18 04:48:09;;;;;;;46.28;15.25;;;;;;;6.80;100.00;100798.38;4913783;29;20047;-75
2023/03/18 04:50:35;;;;;;;52.60;14.13;;;;;;;6.84;100.00;100794.75;4914742;29;20435;-75
2023/03/18 04:53:00;;;;;;;56.83;15.07;;;;;;;6.88;100.00;100799.03;4901606;29;20043;-75
2023/03/18 04:55:26;;;;;;;49.88;13.80;;;;;;;6.92;100.00;100792.75;4913287;29;20653;-75
2023/03/18 04:57:52;;;;;;;47.83;14.93;;;;;;;6.97;100.00;100791.75;4915131;29;20060;-75
2023/03/18 05:00:21;;;;;;;62.53;16.58;;;;;;;7.00;100.00;100792.50;4915036;29;20112;-74
2023/03/18 05:02:47;;;;;;;59.80;16.55;;;;;;;7.00;100.00;100792.50;4909052;29;20043;-74
2023/03/18 05:05:13;;;;;;;54.10;16.08;;;;;;;7.04;100.00;100796.75;4912231;29;20055;-75
2023/03/18 05:07:39;;;;;;;66.75;17.65;;;;;;;7.05;100.00;100795.00;4914956;29;20074;-75
2023/03/18 05:10:05;;;;;;;64.18;18.50;;;;;;;7.07;100.00;100801.06;4912063;29;21015;-74
2023/03/18 05:12:32;;;;;;;63.20;18.00;;;;;;;7.07;100.00;100804.56;4913829;29;20048;-75
2023/03/18 05:14:57;;;;;;;62.58;19.27;;;;;;;7.06;100.00;100807.25;4916185;29;20050;-75
2023/03/18 05:17:24;;;;;;;62.35;20.15;;;;;;;7.05;100.00;100806.41;4917968;29;20031;-75
2023/03/18 05:19:50;;;;;;;60.58;21.38;;;;;;;7.05;100.00;100816.06;4900294;29;20058;-75
2023/03/18 05:22:17;;;;;;;56.28;20.55;;;;;;;7.04;100.00;100822.22;4914415;29;20055;-74
2023/03/18 05:24:44;;;;;;;62.47;22.50;;;;;;;7.00;100.00;100818.84;4914812;29;20523;-75
2023/03/18 05:27:12;;;;;;;60.03;21.65;;;;;;;7.00;100.00;100828.50;4900097;29;20070;-75
2023/03/18 05:29:39;;;;;;;61.63;20.92;;;;;;;6.99;100.00;100821.50;4898835;29;20054;-75
2023/03/18 05:32:06;;;;;;;56.78;21.48;;;;;;;6.97;100.00;100837.34;4901585;29;20122;-75
2023/03/18 05:34:33;;;;;;;51.53;21.40;;;;;;;6.97;100.00;100833.88;4918556;29;20039;-75
2023/03/18 05:36:59;;;;;;;52.38;21.90;;;;;;;6.96;100.00;100842.69;4900640;29;20052;-75
2023/03/18 05:39:25;;;;;;;44.35;21.92;;;;;;;6.95;100.00;100840.91;4916513;29;20515;-75
2023/03/18 05:41:51;;;;;;;44.42;21.77;;;;;;;6.91;100.00;100834.88;4914798;29;20048;-75
2023/03/18 05:44:16;;;;;;;42.53;20.23;;;;;;;6.89;100.00;100832.34;4917629;29;20641;-75
2023/03/18 05:46:42;;;;;;;45.15;21.42;;;;;;;6.86;100.00;100832.41;4915373;29;20090;-75
2023/03/18 05:49:07;;;;;;;44.15;21.83;;;;;;;6.85;100.00;100840.34;4913956;29;20078;-75
2023/03/18 05:51:33;;;;;;;42.15;21.02;;;;;;;6.81;100.00;100847.47;4917637;29;20063;-75
2023/03/18 05:53:59;;;;;;;41.53;20.40;;;;;;;6.78;100.00;100852.84;4900371;29;20044;-75
2023/03/18 05:56:24;;;;;;;44.35;21.83;;;;;;;6.76;100.00;100855.50;4898753;29;20048;-75
2023/03/18 05:58:50;;;;;;;47.00;21.90;;;;;;;6.77;100.00;100854.59;4899838;29;20382;-75
2023/03/18 06:01:16;;;;;;;42.83;21.10;;;;;;;6.77;100.00;100856.38;4917528;29;20051;-75
2023/03/18 06:03:42;;;;;;;44.10;22.83;;;;;;;6.74;100.00;100851.19;4914711;29;20563;-75
2023/03/18 06:06:08;;;;;;;44.78;21.85;;;;;;;6.71;100.00;100860.03;4916303;29;20051;-75
2023/03/18 06:08:33;;;;;;;46.42;22.77;;;;;;;6.71;100.00;100867.06;4905002;29;20484;-75
2023/03/18 06:11:00;;;;;;;45.50;22.77;;;;;;;6.69;100.00;100858.38;4881982;29;22226;-76
2023/03/18 06:13:25;;;;;;;48.08;23.08;;;;;;;6.68;100.00;100862.75;4915993;29;20770;-75
2023/03/18 06:15:58;;;;;;;45.90;22.23;;;;;;;6.65;100.00;100858.44;4917453;29;20091;-74
2023/03/18 06:18:25;;;;;;;47.97;22.58;;;;;;;6.64;100.00;100856.72;4917484;29;20047;-75
2023/03/18 06:20:51;;;;;;;43.47;21.30;;;;;;;6.64;100.00;100869.88;4914846;29;20044;-75
2023/03/18 06:23:17;;;;;;;46.85;22.27;;;;;;;6.65;100.00;100868.13;4897407;28;20044;-75
2023/03/18 06:25:43;;;;;;;47.85;22.13;;;;;;;6.68;100.00;100875.03;4915928;29;20134;-75
2023/03/18 06:28:08;;;;;;;43.72;21.75;;;;;;;6.69;100.00;100876.78;4900288;29;20674;-75
2023/03/18 06:30:35;;;;;;;44.42;22.10;;;;;;;6.70;100.00;100889.03;4917397;29;20086;-75
2023/03/18 06:33:01;;;;;;;44.63;21.35;;;;;;;6.71;100.00;100886.34;4916980;29;20427;-75
2023/03/18 06:35:27;;;;;;;44.55;22.45;;;;;;;6.75;100.00;100892.41;4903250;29;20059;-75
2023/03/18 06:37:53;;;;;;;47.35;23.33;;;;;;;6.78;100.00;100894.94;4899981;29;20083;-75
2023/03/18 06:40:19;;;;;;;52.72;24.52;;;;;;;6.83;100.00;100900.94;4915183;29;20046;-74
2023/03/18 06:42:45;;;;;;;46.42;23.70;;;;;;;6.85;100.00;100893.84;4913816;29;20496;-75
2023/03/18 06:45:12;;;;;;;45.33;23.77;;;;;;;6.90;100.00;100897.22;4916493;29;20048;-75
2023/03/18 06:47:37;;;;;;;50.45;23.90;;;;;;;6.92;100.00;100900.66;4898461;29;20052;-75
2023/03/18 06:50:04;;;;;;;48.83;24.77;;;;;;;6.96;100.00;100900.59;4911860;28;20404;-75
2023/03/18 06:52:30;;;;;;;48.38;25.27;;;;;;;7.01;100.00;100898.66;4898447;29;20043;-75
2023/03/18 06:54:56;;;;;;;44.58;24.42;;;;;;;7.05;100.00;100901.19;4896431;29;20043;-75
2023/03/18 06:57:21;;;;;;;44.47;25.55;;;;;;;7.10;100.00;100900.16;4885716;29;20804;-75
2023/03/18 06:59:47;;;;;;;48.72;26.00;;;;;;;7.15;100.00;100901.72;4916964;29;20134;-75
2023/03/18 07:02:14;;;;;;;51.58;25.90;;;;;;;7.22;100.00;100912.97;4916817;29;20047;-75
2023/03/18 07:04:40;;;;;;;48.22;25.90;;;;;;;7.27;100.00;100902.28;4916191;29;20052;-74
2023/03/18 07:07:06;;;;;;;50.22;26.98;;;;;;;7.32;100.00;100911.75;4895477;29;20044;-74
2023/03/18 07:09:32;;;;;;;47.92;25.63;;;;;;;7.37;100.00;100909.00;4929684;28;20415;-74
2023/03/18 07:11:59;;;;;;;52.78;26.42;;;;;;;7.44;100.00;100913.16;4916463;29;20703;-74
2023/03/18 07:14:25;;;;;;;52.10;27.20;;;;;;;7.48;100.00;100909.50;4914756;29;20047;-74
2023/03/18 07:16:50;;;;;;;47.78;25.30;;;;;;;7.55;100.00;100917.22;4911658;29;20050;-75
2023/03/18 07:19:17;;;;;;;45.97;24.45;;;;;;;7.61;100.00;100915.28;4929217;28;20043;-75
2023/03/18 07:21:45;;;;;;;49.08;26.60;;;;;;;7.68;100.00;100929.09;4913682;29;20085;-75
2023/03/18 07:24:11;;;;;;;48.03;25.48;;;;;;;7.75;100.00;100928.00;4897299;29;20074;-75
2023/03/18 07:26:37;;;;;;;49.55;26.05;;;;;;;7.79;100.00;100926.13;4902706;29;20043;-75
2023/03/18 07:29:03;;;;;;;44.03;25.63;;;;;;;7.82;100.00;100928.66;4929667;28;20127;-76
2023/03/18 07:31:29;;;;;;;45.08;24.02;;;;;;;7.84;100.00;100920.72;4915693;29;20665;-76
2023/03/18 07:33:56;;;;;;;43.05;24.98;;;;;;;7.87;100.00;100925.88;4914337;29;20047;-74
2023/03/18 07:36:22;;;;;;;45.33;24.35;;;;;;;7.89;100.00;100934.59;4928726;28;20048;-74
2023/03/18 07:38:48;;;;;;;44.10;25.13;;;;;;;7.93;100.00;100936.22;4916485;29;20078;-74
2023/03/18 07:41:14;;;;;;;44.08;24.65;;;;;;;7.96;100.00;100933.47;4926901;28;20139;-74
2023/03/18 07:43:39;;;;;;;43.13;23.25;;;;;;;8.00;100.00;100934.22;4903184;29;21211;-74
2023/03/18 07:46:05;;;;;;;43.53;23.45;;;;;;;8.05;100.00;100934.09;4915681;29;20048;-74
2023/03/18 07:48:32;;;;;;;43.78;23.10;;;;;;;8.08;100.00;100940.13;4903706;29;20051;-73
2023/03/18 07:50:59;;;;;;;39.45;23.58;;;;;;;8.12;100.00;100940.88;4927191;28;20058;-73
2023/03/18 07:53:26;;;;;;;41.00;24.38;;;;;;;8.16;100.00;100942.50;4913246;29;20078;-74
2023/03/18 07:55:52;;;;;;;40.03;23.65;;;;;;;8.19;100.00;100937.13;4913465;29;20055;-74
2023/03/18 07:58:18;;;;;;;41.80;24.20;;;;;;;8.21;100.00;100945.84;4911902;29;20062;-74
2023/03/18 08:00:43;;;;;;;41.00;23.90;;;;;;;8.26;100.00;100951.84;4915578;29;20483;-74
2023/03/18 08:03:11;;;;;;;41.30;22.42;;;;;;;8.29;100.00;100954.34;4915584;29;20518;-74
2023/03/18 08:05:37;;;;;;;40.22;22.65;;;;;;;8.36;100.00;100956.78;4915751;29;20572;-74
2023/03/18 08:08:04;;;;;;;42.58;23.70;;;;;;;8.42;100.00;100953.94;4924773;28;20051;-74
2023/03/18 08:10:29;;;;;;;39.67;22.98;;;;;;;8.51;100.00;100958.03;4928285;28;20135;-74
2023/03/18 08:12:56;;;;;;;44.88;24.27;;;;;;;8.58;100.00;100964.84;4914988;29;20477;-74
2023/03/18 08:15:22;;;;;;;40.45;24.25;;;;;;;8.63;100.00;100965.56;4882110;29;20414;-74
2023/03/18 08:17:48;;;;;;;39.38;23.25;;;;;;;8.69;100.00;100967.09;4915442;29;20048;-74
2023/03/18 08:20:14;;;;;;;38.60;22.60;;;;;;;8.72;100.00;100968.78;4915182;29;20051;-74
2023/03/18 08:22:39;;;;;;;40.42;22.98;;;;;;;8.74;100.00;100965.16;4928135;28;20062;-74
2023/03/18 08:25:06;;;;;;;39.70;23.27;;;;;;;8.77;100.00;100953.66;4913215;29;20047;-74
2023/03/18 08:27:31;;;;;;;34.75;20.83;;;;;;;8.79;100.00;100971.16;4896181;29;20071;-74
2023/03/18 08:29:57;;;;;;;39.05;21.45;;;;;;;8.81;100.00;100964.03;4912874;29;20670;-74
2023/03/18 08:32:32;;;;;;;37.40;21.50;;;;;;;8.83;100.00;100964.84;4912114;29;20376;-74
2023/03/18 08:34:58;;;;;;;39.50;22.08;;;;;;;8.86;100.00;100973.53;4912753;29;20126;-75
2023/03/18 08:37:24;;;;;;;36.53;20.75;;;;;;;8.88;100.00;100977.03;4900127;29;20533;-74
2023/03/18 08:39:49;;;;;;;36.42;21.17;;;;;;;8.90;100.00;100970.75;4914756;29;20067;-75
2023/03/18 08:42:15;;;;;;;40.88;22.25;;;;;;;8.94;100.00;100979.44;4909833;29;20066;-74
2023/03/18 08:44:42;;;;;;;44.88;22.38;;;;;;;8.97;100.00;100987.22;4897796;29;20763;-74
2023/03/18 08:47:07;;;;;;;45.78;23.38;;;;;;;9.01;100.00;100973.00;4911685;29;20047;-74
2023/03/18 08:49:33;;;;;;;46.35;23.23;;;;;;;9.06;100.00;100989.53;4898033;29;20379;-74
2023/03/18 08:51:59;;;;;;;49.17;24.33;;;;;;;9.12;100.00;100990.22;4913720;29;20182;-74
2023/03/18 08:54:24;;;;;;;37.20;21.38;;;;;;;9.17;100.00;100991.78;4915202;29;20185;-74
2023/03/18 08:56:51;;;;;;;35.25;21.70;;;;;;;9.22;100.00;100988.97;4915148;29;20326;-75
2023/03/18 08:59:17;;;;;;;35.60;21.55;;;;;;;9.27;100.00;100981.75;4913595;29;20051;-74
2023/03/18 09:01:42;;;;;;;36.75;21.67;;;;;;;9.31;100.00;100979.84;4914971;29;20111;-74
2023/03/18 09:04:08;;;;;;;36.35;21.27;;;;;;;9.35;100.00;100981.44;4928810;28;20404;-74
2023/03/18 09:06:33;;;;;;;33.70;20.50;;;;;;;9.37;100.00;100980.47;4884630;29;20051;-74
2023/03/18 09:08:59;;;;;;;33.83;19.52;;;;;;;9.44;100.00;100983.75;4894760;29;20511;-75
2023/03/18 09:11:24;;;;;;;32.15;20.80;;;;;;;9.51;100.00;100984.34;4911558;29;20052;-74
2023/03/18 09:13:51;;;;;;;35.50;21.13;;;;;;;9.57;100.00;100992.06;4912183;29;20582;-75
2023/03/18 09:16:17;;;;;;;33.83;20.67;;;;;;;9.60;100.00;100991.91;4912839;29;20083;-74
2023/03/18 09:18:42;;;;;;;34.47;20.38;;;;;;;9.64;100.00;100996.19;4914061;29;20428;-74
2023/03/18 09:21:08;;;;;;;35.83;20.88;;;;;;;9.69;100.00;100995.16;4914202;29;20051;-74
2023/03/18 09:23:34;;;;;;;31.40;20.02;;;;;;;9.76;100.00;101000.09;4911368;29;20051;-75
2023/03/18 09:25:59;;;;;;;32.60;20.02;;;;;;;9.81;100.00;100994.63;4910235;29;21675;-75
2023/03/18 09:28:25;;;;;;;31.50;19.98;;;;;;;9.88;100.00;101005.84;4911997;29;20058;-75
2023/03/18 09:30:51;;;;;;;31.27;20.20;;;;;;;9.95;100.00;101009.09;4914742;29;20048;-75
2023/03/18 09:33:17;;;;;;;32.63;20.42;;;;;;;10.05;100.00;101013.09;4913032;28;20483;-75
2023/03/18 09:35:43;;;;;;;32.55;20.08;;;;;;;10.18;100.00;101010.81;4928200;28;20565;-75
2023/03/18 09:38:15;;;;;;;33.33;19.55;;;;;;;10.30;100.00;101004.16;4879875;29;20051;-75
2023/03/18 09:41:17;;;;;;;32.80;19.05;;;;;;;10.42;100.00;101006.31;4914000;29;20067;-74
2023/03/18 09:44:07;;;;;;;35.60;21.42;;;;;;;10.67;100.00;101013.22;4897364;29;20704;-74
2023/03/18 09:46:47;;;;;;;31.85;19.38;;;;;;;10.84;100.00;101014.28;4910374;29;20139;-74
2023/03/18 09:49:25;;;;;;;29.30;18.75;;;;;;;10.99;100.00;101010.94;4911703;29;20261;-74
2023/03/18 09:52:19;;;;;;;32.10;17.63;;;;;;;11.12;100.00;101013.03;4912504;29;20051;-74
2023/03/18 09:54:51;;;;;;;32.05;16.67;;;;;;;11.24;100.00;101017.78;4914564;29;20044;-75
2023/03/18 09:57:21;;;;;;;27.83;16.67;;;;;;;11.36;100.00;101018.16;4914410;29;20047;-75
2023/03/18 09:59:54;;;;;;;28.90;16.27;;;;;;;11.46;100.00;101010.63;4911480;28;20057;-75
2023/03/18 10:02:25;;;;;;;25.77;16.00;;;;;;;11.55;100.00;101013.72;4908805;29;20059;-77
2023/03/18 10:04:55;;;;;;;25.13;15.18;;;;;;;11.63;100.00;101004.53;4915278;29;20055;-74
2023/03/18 10:07:23;;;;;;;21.90;14.43;;;;;;;11.66;100.00;101009.72;4915229;29;20052;-74
2023/03/18 10:09:59;;;;;;;21.65;14.18;;;;;;;11.72;100.00;101017.34;4913006;29;20044;-74
2023/03/18 10:12:36;;;;;;;21.05;13.95;;;;;;;11.75;100.00;101014.56;4917682;29;20055;-75
2023/03/18 10:15:04;;;;;;;22.48;14.07;;;;;;;11.73;100.00;101024.41;4915739;29;20714;-75
2023/03/18 10:17:55;;;;;;;21.20;13.65;;;;;;;11.68;100.00;101029.91;4903555;29;20522;-75
2023/03/18 10:20:42;;;;;;;20.25;13.88;;;;;;;11.68;100.00;101029.06;4914650;29;20810;-75
2023/03/18 10:23:43;;;;;;;20.52;14.00;;;;;;;11.70;100.00;101032.47;4897156;29;20058;-75
2023/03/18 10:26:24;;;;;;;19.67;12.30;;;;;;;11.72;100.00;101029.75;4884058;29;20558;-75
2023/03/18 10:29:20;;;;;;;18.25;11.32;;;;;;;11.75;100.00;101033.13;4913886;29;20455;-75
2023/03/18 10:32:17;;;;;;;15.48;10.02;;;;;;;11.81;100.00;101032.84;4917332;29;20609;-75
2023/03/18 10:35:14;;;;;;;14.40;9.25;;;;;;;11.85;100.00;101040.63;4915410;29;20047;-75
2023/03/18 10:38:03;;;;;;;15.90;9.38;;;;;;;11.89;100.00;101026.31;4913797;29;20561;-75
2023/03/18 10:40:40;;;;;;;11.52;8.57;;;;;;;11.92;100.00;101031.44;4917396;29;20126;-75
2023/03/18 10:43:18;;;;;;;11.68;7.38;;;;;;;11.95;100.00;101012.75;4915934;29;20122;-76
2023/03/18 10:45:45;;;;;;;10.07;7.03;;;;;;;11.95;100.00;101013.59;4914345;29;20055;-75
2023/03/18 10:48:34;;;;;;;9.18;6.53;;;;;;;11.98;100.00;101017.91;4915465;29;20649;-76
2023/03/18 10:51:15;;;;;;;10.00;6.63;;;;;;;12.06;100.00;101021.09;4916396;29;20069;-75
2023/03/18 10:53:45;;;;;;;7.90;5.28;;;;;;;12.15;100.00;101017.09;4916788;29;20043;-75
2023/03/18 10:56:12;;;;;;;10.57;5.95;;;;;;;12.21;100.00;101031.88;4899986;29;20047;-75
2023/03/18 10:58:39;;;;;;;10.32;5.78;;;;;;;12.27;100.00;101034.22;4913871;29;20047;-75
2023/03/18 11:01:06;;;;;;;10.63;6.45;;;;;;;12.33;100.00;101031.25;4909761;29;20491;-75
2023/03/18 11:03:36;;;;;;;10.98;7.32;;;;;;;12.40;100.00;101036.25;4916783;29;20059;-75
2023/03/18 11:06:06;;;;;;;10.25;7.65;;;;;;;12.48;100.00;101039.41;4914036;29;20653;-75
2023/03/18 11:08:58;;;;;;;13.15;8.48;;;;;;;12.58;100.00;101035.34;4927452;28;20093;-76
2023/03/18 11:11:28;;;;;;;14.77;9.50;;;;;;;12.64;100.00;101031.50;4915800;29;20122;-75
2023/03/18 11:13:56;;;;;;;14.73;9.30;;;;;;;12.71;100.00;101027.63;4904877;29;20044;-75